Time;durP1;ratioP1;P1;durP2;ratioP2;P2;SDS_P1;SDS_P2;PMS_P1;PMS_P2;Temp;Humidity;BMP_temperature;BMP_pressure;BME280_temperature;BME280_humidity;BME280_pressure;Samples;Min_cycle;Max_cycle;Signal;HPM_P1;HPM_P2
2021/07/29 00:01:18;;;;;;;11.37;10.57;;;17.00;99.90;;;;;;4959823;28;20215;-76
2021/07/29 00:03:45;;;;;;;6.67;6.07;;;16.90;99.90;;;;;;4957799;28;20205;-76
2021/07/29 00:06:15;;;;;;;7.57;6.77;;;16.90;99.90;;;;;;4968230;28;20200;-76
2021/07/29 00:08:42;;;;;;;8.37;7.67;;;16.90;99.90;;;;;;4953136;28;20253;-77
2021/07/29 00:11:11;;;;;;;6.33;5.57;;;16.90;99.90;;;;;;4960783;28;20225;-75
2021/07/29 00:13:39;;;;;;;8.50;7.80;;;16.80;99.90;;;;;;4953760;28;20210;-76
2021/07/29 00:16:06;;;;;;;5.50;5.00;;;16.80;99.90;;;;;;4967973;28;20197;-76
2021/07/29 00:21:17;;;;;;;8.27;7.53;;;16.70;99.90;;;;;;4969202;23;20819;-75
2021/07/29 00:23:48;;;;;;;5.63;5.00;;;16.70;99.90;;;;;;4955872;28;20205;-75
2021/07/29 00:26:16;;;;;;;5.53;5.03;;;16.60;99.90;;;;;;4956440;29;20195;-75
2021/07/29 00:28:43;;;;;;;10.47;9.77;;;16.60;99.90;;;;;;4957129;29;20228;-75
2021/07/29 00:31:10;;;;;;;7.83;6.80;;;16.50;99.90;;;;;;4953622;28;20211;-76
2021/07/29 00:33:37;;;;;;;5.40;4.90;;;16.50;99.90;;;;;;4956597;28;20196;-75
2021/07/29 00:36:04;;;;;;;12.00;11.20;;;16.50;99.90;;;;;;4957176;28;20555;-75
2021/07/29 00:38:31;;;;;;;5.43;4.93;;;16.40;99.90;;;;;;4957295;29;20188;-75
2021/07/29 00:40:58;;;;;;;9.13;4.90;;;16.50;99.90;;;;;;4956328;28;20585;-75
2021/07/29 00:43:26;;;;;;;6.20;5.60;;;16.40;99.90;;;;;;4957621;28;20204;-75
2021/07/29 00:45:53;;;;;;;5.47;4.70;;;16.40;99.90;;;;;;4957009;29;20570;-75
2021/07/29 00:48:21;;;;;;;5.90;4.60;;;16.40;99.90;;;;;;4955626;29;20202;-75
2021/07/29 00:50:48;;;;;;;5.87;4.87;;;16.30;99.90;;;;;;4956589;28;20261;-75
2021/07/29 00:53:16;;;;;;;5.20;4.70;;;16.30;99.90;;;;;;4953998;28;20238;-75
2021/07/29 00:55:43;;;;;;;12.37;11.47;;;16.30;99.90;;;;;;4957174;28;20220;-75
2021/07/29 00:58:10;;;;;;;5.67;4.90;;;16.30;99.90;;;;;;4957082;29;20199;-75
2021/07/29 01:00:38;;;;;;;12.33;11.47;;;16.30;99.90;;;;;;4953114;28;20694;-75
2021/07/29 01:03:05;;;;;;;5.43;4.93;;;16.30;99.90;;;;;;4956833;29;20547;-77
2021/07/29 01:05:31;;;;;;;7.40;6.80;;;16.20;99.90;;;;;;4955689;29;20607;-75
2021/07/29 01:07:58;;;;;;;5.50;4.90;;;16.20;99.90;;;;;;4955516;29;20213;-76
2021/07/29 01:10:25;;;;;;;5.07;4.57;;;16.20;99.90;;;;;;4954923;29;20222;-77
2021/07/29 01:12:52;;;;;;;5.13;4.63;;;16.10;99.90;;;;;;4955432;28;20211;-77
2021/07/29 01:15:18;;;;;;;5.57;4.97;;;16.10;99.90;;;;;;4956624;28;20664;-77
2021/07/29 01:17:47;;;;;;;4.77;4.30;;;16.10;99.90;;;;;;4956290;28;20650;-77
2021/07/29 01:20:22;;;;;;;5.93;4.80;;;16.10;99.90;;;;;;4954682;28;20216;-76
2021/07/29 01:22:50;;;;;;;5.80;5.20;;;16.00;99.90;;;;;;4955821;28;20257;-77
2021/07/29 01:25:17;;;;;;;5.73;5.13;;;15.90;99.90;;;;;;4954939;29;20207;-77
2021/07/29 01:27:43;;;;;;;8.03;5.80;;;15.90;99.90;;;;;;4953357;29;20664;-77
2021/07/29 01:30:12;;;;;;;6.77;5.50;;;15.80;99.90;;;;;;4953492;28;20221;-77
2021/07/29 01:32:39;;;;;;;4.97;4.47;;;15.80;99.90;;;;;;4953918;29;20207;-77
2021/07/29 01:35:09;;;;;;;5.67;4.90;;;15.70;99.90;;;;;;4956929;28;20644;-77
2021/07/29 01:37:38;;;;;;;7.93;5.60;;;15.70;99.90;;;;;;4956553;28;20186;-77
2021/07/29 01:40:06;;;;;;;5.07;4.57;;;15.70;99.90;;;;;;4955563;28;20270;-76
2021/07/29 01:42:33;;;;;;;5.83;5.20;;;15.60;99.90;;;;;;4949423;28;20199;-77
2021/07/29 01:45:00;;;;;;;5.93;5.33;;;15.60;99.90;;;;;;4956312;28;20442;-77
2021/07/29 01:47:27;;;;;;;5.70;4.73;;;15.70;99.90;;;;;;4954134;29;20202;-77
2021/07/29 01:49:54;;;;;;;5.07;4.57;;;15.70;99.90;;;;;;4954678;29;20226;-76
2021/07/29 01:52:21;;;;;;;5.50;4.37;;;15.70;99.90;;;;;;4956033;28;20313;-76
2021/07/29 01:54:49;;;;;;;5.53;4.83;;;15.70;99.90;;;;;;4955197;28;20589;-77
2021/07/29 01:57:16;;;;;;;5.43;4.60;;;15.70;99.90;;;;;;4955591;28;20690;-79
2021/07/29 01:59:43;;;;;;;5.87;4.70;;;15.80;99.90;;;;;;4955934;28;20247;-74
2021/07/29 02:02:10;;;;;;;5.00;4.40;;;15.80;99.90;;;;;;4954740;28;20204;-77
2021/07/29 02:04:36;;;;;;;6.30;5.00;;;15.80;99.90;;;;;;4956115;28;20194;-77
2021/07/29 02:07:04;;;;;;;5.60;4.97;;;15.70;99.90;;;;;;4953402;29;20207;-77
2021/07/29 02:09:31;;;;;;;5.20;4.70;;;15.80;99.90;;;;;;4955597;29;20193;-77
2021/07/29 02:11:59;;;;;;;6.27;5.57;;;15.70;99.90;;;;;;4948337;29;20194;-77
2021/07/29 02:14:28;;;;;;;6.80;5.20;;;15.60;99.90;;;;;;4954520;29;20197;-77
2021/07/29 02:16:55;;;;;;;6.90;5.10;;;15.50;99.90;;;;;;4954533;28;20195;-76
2021/07/29 02:19:22;;;;;;;7.73;5.87;;;15.50;99.90;;;;;;4955704;29;20195;-77
2021/07/29 02:21:49;;;;;;;7.50;5.67;;;15.40;99.90;;;;;;4955501;28;20576;-76
2021/07/29 02:24:15;;;;;;;6.57;5.30;;;15.40;99.90;;;;;;4946488;29;20223;-76
2021/07/29 02:26:42;;;;;;;5.87;5.00;;;15.30;99.90;;;;;;4954170;28;20230;-77
2021/07/29 02:29:10;;;;;;;6.03;5.13;;;15.30;99.90;;;;;;4955386;28;20664;-76
2021/07/29 02:31:37;;;;;;;4.80;4.33;;;15.30;99.90;;;;;;4953960;29;20247;-76
2021/07/29 02:34:04;;;;;;;6.33;5.70;;;15.30;99.90;;;;;;4957651;29;20210;-78
2021/07/29 02:36:31;;;;;;;5.83;5.03;;;15.40;99.90;;;;;;4963553;28;20266;-79
2021/07/29 02:38:58;;;;;;;5.60;5.07;;;15.40;99.90;;;;;;4960323;28;20210;-81
2021/07/29 02:41:24;;;;;;;5.30;4.50;;;15.40;99.90;;;;;;4953616;28;20316;-82
2021/07/29 02:43:51;;;;;;;6.60;5.90;;;15.40;99.90;;;;;;4952725;28;20709;-82
2021/07/29 02:46:19;;;;;;;5.17;4.47;;;15.40;99.90;;;;;;4949120;29;20203;-82
2021/07/29 02:48:46;;;;;;;6.60;5.40;;;15.50;99.90;;;;;;4953592;29;20649;-83
2021/07/29 02:51:13;;;;;;;6.20;5.43;;;15.50;99.90;;;;;;4953760;29;20218;-83
2021/07/29 02:53:40;;;;;;;6.47;5.20;;;15.50;99.90;;;;;;4953106;28;20192;-83
2021/07/29 02:56:08;;;;;;;5.63;5.03;;;15.50;99.90;;;;;;4949502;29;20563;-82
2021/07/29 02:58:35;;;;;;;5.60;4.80;;;15.50;99.90;;;;;;4955283;28;20228;-82
2021/07/29 03:01:02;;;;;;;5.27;4.60;;;15.50;99.90;;;;;;4952843;29;20273;-81
2021/07/29 03:03:30;;;;;;;5.30;4.80;;;15.60;99.90;;;;;;4949726;29;20290;-80
2021/07/29 03:05:57;;;;;;;5.83;4.97;;;15.60;99.90;;;;;;4950963;29;20232;-82
2021/07/29 03:08:24;;;;;;;4.97;4.40;;;15.60;99.90;;;;;;4952716;28;20199;-82
2021/07/29 03:10:52;;;;;;;5.53;4.50;;;15.60;99.90;;;;;;4954119;29;20216;-81
2021/07/29 03:13:19;;;;;;;5.40;4.90;;;15.50;99.90;;;;;;4953522;29;20214;-82
2021/07/29 03:15:46;;;;;;;5.30;4.80;;;15.50;99.90;;;;;;4956544;28;20191;-81
2021/07/29 03:18:13;;;;;;;5.17;4.50;;;15.50;99.90;;;;;;4954586;28;20210;-79
2021/07/29 03:20:42;;;;;;;5.07;4.63;;;15.50;99.90;;;;;;4954692;29;20222;-77
2021/07/29 03:23:09;;;;;;;6.17;4.97;;;15.50;99.90;;;;;;4949569;29;20675;-81
2021/07/29 03:25:36;;;;;;;7.53;5.90;;;15.50;99.90;;;;;;4945419;29;20206;-78
2021/07/29 03:28:04;;;;;;;6.77;5.77;;;15.50;99.90;;;;;;4952181;29;20206;-77
2021/07/29 03:30:31;;;;;;;6.43;5.60;;;15.50;99.90;;;;;;4952237;28;20215;-76
2021/07/29 03:32:58;;;;;;;5.70;5.10;;;15.50;99.90;;;;;;4945172;28;20666;-76
2021/07/29 03:35:25;;;;;;;5.90;5.37;;;15.50;99.90;;;;;;4952894;28;20249;-76
2021/07/29 03:37:53;;;;;;;6.23;5.63;;;15.50;99.90;;;;;;4948626;29;20335;-77
2021/07/29 03:40:20;;;;;;;6.40;5.70;;;15.50;99.90;;;;;;4951963;29;20621;-77
2021/07/29 03:42:47;;;;;;;7.10;5.70;;;15.50;99.90;;;;;;4954572;28;20611;-76
2021/07/29 03:45:14;;;;;;;6.30;5.60;;;15.50;99.90;;;;;;4951649;28;20627;-77
2021/07/29 03:47:41;;;;;;;6.57;5.53;;;15.60;99.90;;;;;;4946735;29;20207;-77
2021/07/29 03:50:08;;;;;;;6.40;5.80;;;15.60;99.90;;;;;;4953101;28;20214;-76
2021/07/29 03:52:37;;;;;;;6.07;5.47;;;15.60;99.90;;;;;;4953473;28;20251;-76
2021/07/29 03:55:07;;;;;;;9.27;6.00;;;15.60;99.90;;;;;;4956723;28;20262;-76
2021/07/29 03:57:34;;;;;;;6.53;5.77;;;15.60;99.90;;;;;;4956465;29;20202;-77
2021/07/29 04:00:01;;;;;;;6.73;5.97;;;15.60;99.90;;;;;;4955265;28;20216;-77
2021/07/29 04:02:28;;;;;;;6.60;5.90;;;15.50;99.90;;;;;;4957163;29;20229;-77
2021/07/29 04:04:55;;;;;;;8.33;6.30;;;15.60;99.90;;;;;;4956164;28;20245;-77
2021/07/29 04:07:22;;;;;;;7.83;6.33;;;15.60;99.90;;;;;;4954710;28;20249;-76
2021/07/29 04:09:49;;;;;;;7.67;6.10;;;15.70;99.90;;;;;;4958567;28;20734;-76
2021/07/29 04:12:18;;;;;;;6.00;5.40;;;15.70;99.90;;;;;;4956070;28;20203;-76
2021/07/29 04:14:45;;;;;;;8.57;6.20;;;15.70;99.90;;;;;;4954808;28;20207;-76
2021/07/29 04:17:13;;;;;;;6.70;5.93;;;15.80;99.90;;;;;;4949890;28;20198;-76
2021/07/29 04:19:40;;;;;;;6.40;5.80;;;15.80;99.90;;;;;;4956541;29;20225;-76
2021/07/29 04:22:08;;;;;;;7.43;6.27;;;15.80;99.90;;;;;;4957736;28;20221;-76
2021/07/29 04:24:35;;;;;;;6.80;6.10;;;15.80;99.90;;;;;;4957473;28;20200;-76
2021/07/29 04:27:03;;;;;;;6.80;6.03;;;15.80;99.90;;;;;;4956611;28;20206;-76
2021/07/29 04:29:34;;;;;;;6.63;5.97;;;15.90;99.90;;;;;;4957678;28;20198;-77
2021/07/29 04:32:01;;;;;;;7.47;6.60;;;15.90;99.90;;;;;;4945738;28;20203;-76
2021/07/29 04:34:28;;;;;;;8.20;7.40;;;16.00;99.90;;;;;;4946126;28;20278;-77
2021/07/29 04:36:56;;;;;;;8.60;7.80;;;16.00;99.90;;;;;;4948295;29;20207;-76
2021/07/29 04:39:22;;;;;;;8.13;7.40;;;16.10;99.90;;;;;;4957202;28;20197;-77
2021/07/29 04:41:49;;;;;;;7.73;7.03;;;16.10;99.90;;;;;;4939111;29;20251;-77
2021/07/29 04:44:17;;;;;;;8.10;7.03;;;16.20;99.90;;;;;;4938914;29;20190;-77
2021/07/29 04:46:45;;;;;;;6.70;6.03;;;16.20;99.90;;;;;;4936735;29;20197;-77
2021/07/29 04:49:12;;;;;;;7.13;6.43;;;16.30;99.90;;;;;;4949553;28;20200;-76
2021/07/29 04:51:40;;;;;;;7.60;6.70;;;16.30;99.90;;;;;;4942817;28;20197;-76
2021/07/29 04:54:07;;;;;;;9.10;8.27;;;16.30;99.90;;;;;;4949658;28;20610;-77
2021/07/29 04:56:34;;;;;;;9.67;8.87;;;16.40;99.90;;;;;;4957262;28;20206;-77
2021/07/29 04:59:01;;;;;;;10.33;9.53;;;16.40;99.90;;;;;;4956904;28;20201;-76
2021/07/29 05:01:28;;;;;;;10.27;9.47;;;16.50;99.90;;;;;;4953093;28;20677;-77
2021/07/29 05:03:56;;;;;;;10.17;9.37;;;16.60;99.90;;;;;;4957080;28;20548;-77
2021/07/29 05:06:23;;;;;;;9.97;9.17;;;16.70;99.90;;;;;;4956288;28;20247;-77
2021/07/29 05:08:49;;;;;;;9.93;9.13;;;16.80;99.90;;;;;;4956920;28;20197;-77
2021/07/29 05:11:16;;;;;;;9.27;8.57;;;16.80;99.90;;;;;;4956268;28;20207;-77
2021/07/29 05:13:43;;;;;;;9.50;8.80;;;16.80;99.90;;;;;;4955904;28;20195;-76
2021/07/29 05:16:10;;;;;;;9.40;8.60;;;16.90;99.90;;;;;;4945788;28;20188;-77
2021/07/29 05:18:38;;;;;;;9.17;8.40;;;16.90;99.90;;;;;;4956029;28;20199;-76
2021/07/29 05:21:08;;;;;;;8.10;7.50;;;17.00;99.90;;;;;;4955458;28;20235;-77
2021/07/29 05:23:35;;;;;;;8.60;7.87;;;17.00;99.90;;;;;;4956639;28;20203;-76
2021/07/29 05:26:01;;;;;;;8.10;7.30;;;17.00;99.90;;;;;;4956891;28;20204;-77
2021/07/29 05:28:29;;;;;;;5.47;4.90;;;17.20;99.90;;;;;;4956311;28;20207;-77
2021/07/29 05:30:56;;;;;;;7.70;7.00;;;17.30;99.90;;;;;;4952544;28;20635;-77
2021/07/29 05:33:22;;;;;;;8.93;8.23;;;17.50;99.90;;;;;;4948603;28;20196;-77
2021/07/29 05:35:49;;;;;;;8.80;8.07;;;17.70;99.90;;;;;;4954123;28;20196;-77
2021/07/29 05:38:17;;;;;;;9.10;8.40;;;17.90;99.90;;;;;;4953991;28;20623;-76
2021/07/29 05:40:44;;;;;;;8.63;7.87;;;18.00;99.90;;;;;;4951431;28;20213;-77
2021/07/29 05:43:11;;;;;;;8.63;7.83;;;18.10;99.90;;;;;;4954113;28;20219;-77
2021/07/29 05:45:38;;;;;;;8.67;8.00;;;18.20;99.90;;;;;;4955333;28;20201;-77
2021/07/29 05:48:05;;;;;;;9.60;8.90;;;18.30;99.90;;;;;;4955869;28;20648;-77
2021/07/29 05:50:32;;;;;;;9.90;9.20;;;18.60;99.90;;;;;;4953071;28;20687;-77
2021/07/29 05:53:00;;;;;;;10.10;9.37;;;18.70;99.90;;;;;;4951798;28;20198;-77
2021/07/29 05:55:29;;;;;;;9.20;8.50;;;18.90;99.90;;;;;;4956422;28;20205;-77
2021/07/29 05:57:55;;;;;;;9.33;8.63;;;19.10;99.90;;;;;;4954333;28;20202;-76
2021/07/29 06:00:22;;;;;;;9.80;9.10;;;19.30;99.90;;;;;;4954184;28;20238;-77
2021/07/29 06:02:49;;;;;;;9.97;9.27;;;19.40;99.90;;;;;;4951608;28;20218;-77
2021/07/29 06:05:16;;;;;;;10.37;9.47;;;19.50;99.90;;;;;;4955259;28;20194;-77
2021/07/29 06:07:43;;;;;;;5.13;4.70;;;19.70;99.90;;;;;;4954349;28;20253;-77
2021/07/29 06:10:11;;;;;;;8.90;8.20;;;19.90;99.90;;;;;;4954796;28;20230;-77
2021/07/29 06:12:39;;;;;;;9.03;8.33;;;20.10;99.90;;;;;;4951915;28;20274;-75
2021/07/29 06:15:07;;;;;;;5.33;4.80;;;20.30;99.90;;;;;;4953620;28;20204;-75
2021/07/29 06:17:36;;;;;;;9.00;8.20;;;20.50;99.90;;;;;;4946501;28;20248;-76
2021/07/29 06:20:06;;;;;;;11.00;8.33;;;20.70;99.90;;;;;;4971422;23;20351;-77
2021/07/29 06:22:33;;;;;;;5.13;4.63;;;21.00;99.90;;;;;;4943559;29;20644;-78
2021/07/29 06:25:00;;;;;;;5.03;4.53;;;21.10;99.90;;;;;;4970275;28;20193;-78
2021/07/29 06:27:27;;;;;;;10.73;9.97;;;21.10;99.90;;;;;;4955002;28;20198;-77
2021/07/29 06:29:55;;;;;;;12.03;11.23;;;21.20;99.90;;;;;;4955778;28;20251;-77
2021/07/29 06:32:22;;;;;;;12.10;11.10;;;21.30;99.90;;;;;;4970550;28;20194;-78
2021/07/29 06:34:48;;;;;;;10.77;10.00;;;21.50;99.90;;;;;;4970111;28;20202;-78
2021/07/29 06:37:15;;;;;;;11.57;10.67;;;21.90;99.90;;;;;;4954910;29;20224;-78
2021/07/29 06:39:42;;;;;;;11.57;10.77;;;22.00;99.90;;;;;;4969422;28;20206;-78
2021/07/29 06:42:09;;;;;;;12.80;11.83;;;22.20;99.90;;;;;;4949097;28;20278;-78
2021/07/29 06:44:36;;;;;;;8.93;8.30;;;22.30;99.90;;;;;;4945647;29;20253;-77
2021/07/29 06:47:04;;;;;;;10.03;9.33;;;22.30;99.90;;;;;;4940229;29;20199;-77
2021/07/29 06:49:31;;;;;;;11.50;10.63;;;22.70;99.90;;;;;;4937449;29;20203;-77
2021/07/29 06:51:58;;;;;;;9.93;8.97;;;23.20;99.90;;;;;;4960894;28;20226;-78
2021/07/29 06:54:25;;;;;;;11.20;10.43;;;22.90;99.90;;;;;;4941802;28;20282;-78
2021/07/29 06:56:52;;;;;;;9.60;8.90;;;22.50;99.90;;;;;;4945858;29;20608;-78
2021/07/29 06:59:19;;;;;;;8.13;7.33;;;22.50;99.90;;;;;;4943440;29;20199;-78
2021/07/29 07:01:45;;;;;;;8.50;7.90;;;22.90;99.90;;;;;;4943434;29;20222;-78
2021/07/29 07:04:14;;;;;;;8.37;7.77;;;23.30;99.90;;;;;;4942262;29;20678;-78
2021/07/29 07:06:40;;;;;;;7.27;6.63;;;23.90;99.90;;;;;;4939130;29;20701;-78
2021/07/29 07:09:07;;;;;;;10.60;9.80;;;24.30;99.90;;;;;;4944424;29;20192;-78
2021/07/29 07:11:34;;;;;;;10.03;9.10;;;24.40;99.90;;;;;;4943765;29;20215;-78
2021/07/29 07:14:02;;;;;;;10.60;9.70;;;24.60;99.90;;;;;;4945081;29;20262;-78
2021/07/29 07:16:29;;;;;;;5.57;4.90;;;24.80;99.90;;;;;;4944934;29;20202;-78
2021/07/29 07:18:57;;;;;;;6.50;6.00;;;25.00;99.90;;;;;;4938851;29;20656;-78
2021/07/29 07:21:25;;;;;;;6.63;4.47;;;25.30;99.90;;;;;;4939997;29;20712;-79
2021/07/29 07:23:52;;;;;;;7.20;6.60;;;25.00;99.90;;;;;;4942228;29;20727;-78
2021/07/29 07:26:21;;;;;;;5.17;4.67;;;25.10;99.90;;;;;;4942731;29;20191;-78
2021/07/29 07:28:49;;;;;;;4.37;3.97;;;25.40;99.90;;;;;;4943310;29;20201;-78
2021/07/29 07:31:18;;;;;;;5.70;3.47;;;25.70;99.90;;;;;;4942686;29;20215;-78
2021/07/29 07:33:45;;;;;;;5.03;4.63;;;26.10;99.90;;;;;;4944126;29;20194;-79
2021/07/29 07:36:12;;;;;;;9.77;8.97;;;26.40;99.90;;;;;;4938014;29;20253;-78
2021/07/29 07:38:40;;;;;;;5.43;4.93;;;26.60;99.90;;;;;;4950382;29;20202;-80
2021/07/29 07:41:08;;;;;;;9.43;8.63;;;26.70;99.90;;;;;;4946727;29;20214;-79
2021/07/29 07:43:35;;;;;;;10.43;9.47;;;26.40;99.90;;;;;;4954509;29;20261;-79
2021/07/29 07:46:03;;;;;;;4.80;4.40;;;26.70;99.90;;;;;;4945130;28;20213;-79
2021/07/29 07:48:30;;;;;;;9.53;8.83;;;26.70;99.90;;;;;;4944826;29;20218;-79
2021/07/29 07:50:59;;;;;;;10.60;9.80;;;26.80;99.90;;;;;;4932694;29;20273;-79
2021/07/29 07:53:28;;;;;;;10.37;9.77;;;26.90;99.90;;;;;;4938634;29;20202;-79
2021/07/29 07:55:57;;;;;;;10.33;9.63;;;27.00;99.90;;;;;;4944262;29;20656;-79
2021/07/29 07:58:24;;;;;;;10.13;9.43;;;27.20;99.90;;;;;;4943701;29;20259;-79
2021/07/29 08:00:51;;;;;;;10.13;9.43;;;27.40;99.90;;;;;;4944363;29;20646;-79
2021/07/29 08:03:18;;;;;;;10.20;9.30;;;27.60;99.90;;;;;;4947144;29;20216;-78
2021/07/29 08:05:45;;;;;;;9.53;8.93;;;27.60;99.90;;;;;;4941785;29;20200;-78
2021/07/29 08:08:11;;;;;;;10.37;9.77;;;27.30;99.90;;;;;;4941834;29;20199;-78
2021/07/29 08:10:39;;;;;;;10.37;9.63;;;27.60;99.90;;;;;;4943961;29;20630;-80
2021/07/29 08:13:08;;;;;;;11.00;10.20;;;27.70;99.90;;;;;;4946377;29;20189;-80
2021/07/29 08:15:36;;;;;;;10.50;9.80;;;27.70;99.90;;;;;;4953068;29;20205;-80
2021/07/29 08:18:03;;;;;;;8.20;7.70;;;27.10;99.90;;;;;;4946799;29;20273;-79
2021/07/29 08:20:30;;;;;;;10.33;9.63;;;26.50;99.90;;;;;;4952892;29;20293;-79
2021/07/29 08:22:57;;;;;;;10.30;9.53;;;25.90;99.90;;;;;;4951919;29;20214;-79
2021/07/29 08:25:25;;;;;;;9.77;8.97;;;25.60;99.90;;;;;;4942723;29;20553;-79
2021/07/29 08:27:53;;;;;;;9.33;8.70;;;25.20;99.90;;;;;;4942374;29;20223;-79
2021/07/29 08:30:22;;;;;;;6.37;5.87;;;25.00;99.90;;;;;;4940807;29;20235;-79
2021/07/29 08:32:49;;;;;;;9.93;9.23;;;24.90;99.90;;;;;;4944092;29;20687;-78
2021/07/29 08:35:16;;;;;;;4.40;4.00;;;25.30;99.90;;;;;;4940839;29;20281;-79
2021/07/29 08:37:45;;;;;;;5.17;4.00;;;25.70;99.90;;;;;;4943798;28;20202;-78
2021/07/29 08:40:16;;;;;;;4.73;4.33;;;26.00;99.90;;;;;;4942988;28;20639;-78
2021/07/29 08:42:43;;;;;;;4.47;3.70;;;26.50;99.90;;;;;;4943568;29;20297;-79
2021/07/29 08:45:11;;;;;;;8.67;7.67;;;26.20;99.90;;;;;;4944785;28;20199;-78
2021/07/29 08:47:43;;;;;;;4.93;3.60;;;25.80;99.90;;;;;;4946114;29;20664;-79
2021/07/29 08:50:11;;;;;;;7.07;5.70;;;25.50;99.90;;;;;;4939439;29;20278;-79
2021/07/29 08:52:38;;;;;;;5.47;4.17;;;25.60;99.90;;;;;;4946480;29;20198;-78
2021/07/29 08:55:07;;;;;;;10.67;9.77;;;25.50;99.90;;;;;;4944334;29;20191;-78
2021/07/29 08:57:37;;;;;;;6.90;6.30;;;25.40;99.90;;;;;;4942758;29;20195;-79
2021/07/29 09:00:08;;;;;;;6.17;5.67;;;25.50;99.90;;;;;;4948394;29;20205;-78
2021/07/29 09:02:35;;;;;;;9.60;8.90;;;25.90;99.90;;;;;;4947483;29;20207;-78
2021/07/29 09:05:14;;;;;;;6.30;5.73;;;25.90;99.90;;;;;;4942517;29;20194;-78
2021/07/29 09:07:41;;;;;;;9.80;9.10;;;26.10;99.90;;;;;;4946925;29;20198;-78
2021/07/29 09:10:23;;;;;;;6.33;5.73;;;26.40;99.90;;;;;;4945355;29;20209;-78
2021/07/29 09:13:12;;;;;;;9.13;8.43;;;26.50;99.90;;;;;;4948634;29;20194;-78
2021/07/29 09:15:39;;;;;;;8.37;7.67;;;27.00;99.90;;;;;;4948724;29;20601;-78
2021/07/29 09:18:07;;;;;;;4.57;3.60;;;26.80;99.90;;;;;;4944196;29;20583;-79
2021/07/29 09:20:36;;;;;;;4.80;3.90;;;26.50;99.90;;;;;;4940538;29;20237;-78
2021/07/29 09:23:16;;;;;;;5.00;4.50;;;26.60;99.90;;;;;;4944821;29;20214;-78
2021/07/29 09:25:44;;;;;;;8.43;7.80;;;26.80;99.90;;;;;;4946929;29;20243;-78
2021/07/29 09:28:12;;;;;;;9.77;8.97;;;27.00;99.90;;;;;;4945849;29;20242;-78
2021/07/29 09:30:39;;;;;;;6.70;6.10;;;27.30;99.90;;;;;;4946429;29;20219;-78
2021/07/29 09:33:09;;;;;;;11.10;10.40;;;27.30;99.90;;;;;;4946130;29;20199;-78
2021/07/29 09:35:40;;;;;;;6.57;5.97;;;27.70;99.90;;;;;;4946187;29;20565;-78
2021/07/29 09:38:10;;;;;;;11.50;10.70;;;28.30;99.90;;;;;;4943832;29;20207;-78
2021/07/29 09:40:46;;;;;;;11.30;10.60;;;28.40;99.90;;;;;;4948161;29;20269;-78
2021/07/29 09:43:15;;;;;;;4.43;3.80;;;28.30;99.90;;;;;;4946127;29;20565;-78
2021/07/29 09:45:43;;;;;;;10.30;9.40;;;27.90;99.90;;;;;;4944782;29;20191;-78
2021/07/29 09:48:11;;;;;;;11.17;10.03;;;27.30;99.90;;;;;;4944785;29;20199;-78
2021/07/29 09:50:40;;;;;;;9.80;9.00;;;26.80;99.90;;;;;;4945435;29;20656;-78
2021/07/29 09:53:08;;;;;;;8.07;7.43;;;26.50;99.90;;;;;;4946108;28;20203;-78
2021/07/29 09:55:35;;;;;;;9.23;8.53;;;26.40;99.90;;;;;;4944216;29;20203;-78
2021/07/29 09:58:02;;;;;;;9.20;8.50;;;26.80;99.90;;;;;;4943401;29;20273;-78
2021/07/29 10:00:29;;;;;;;11.23;10.27;;;27.20;99.90;;;;;;4946431;29;20222;-79
2021/07/29 10:02:57;;;;;;;8.00;6.13;;;27.40;99.90;;;;;;4933037;29;20211;-78
2021/07/29 10:05:29;;;;;;;7.57;4.40;;;27.10;99.90;;;;;;4941179;29;20195;-78
2021/07/29 10:08:00;;;;;;;9.20;8.50;;;26.50;99.90;;;;;;4947739;28;20186;-78
2021/07/29 10:10:28;;;;;;;9.40;8.60;;;26.10;99.90;;;;;;4943354;29;20704;-78
2021/07/29 10:12:55;;;;;;;9.23;8.63;;;25.80;99.90;;;;;;4945655;29;20249;-78
2021/07/29 10:15:40;;;;;;;9.77;9.07;;;25.60;99.90;;;;;;4944289;29;20195;-78
2021/07/29 10:18:08;;;;;;;9.70;8.80;;;25.70;99.90;;;;;;4943412;29;20202;-78
2021/07/29 10:20:37;;;;;;;10.27;9.50;;;26.00;99.90;;;;;;4944275;29;20230;-78
2021/07/29 10:23:52;;;;;;;10.20;9.50;;;26.10;99.90;;;;;;4940852;29;20234;-78
2021/07/29 10:26:18;;;;;;;9.30;8.70;;;26.20;99.90;;;;;;4943703;29;20286;-78
2021/07/29 10:28:45;;;;;;;10.67;9.70;;;26.70;99.90;;;;;;4941255;29;20199;-78
2021/07/29 10:31:14;;;;;;;9.13;8.43;;;26.90;99.90;;;;;;4942071;29;20293;-77
2021/07/29 10:33:42;;;;;;;9.83;9.03;;;26.60;99.90;;;;;;4943846;29;20728;-77
2021/07/29 10:36:25;;;;;;;10.93;10.13;;;26.20;99.90;;;;;;4941608;29;20568;-78
2021/07/29 10:38:53;;;;;;;9.50;8.70;;;25.70;99.90;;;;;;4943269;29;20206;-78
2021/07/29 10:41:51;;;;;;;9.50;8.70;;;25.40;99.90;;;;;;4942384;29;20753;-78
2021/07/29 10:44:44;;;;;;;9.67;8.97;;;25.90;99.90;;;;;;4953589;28;20226;-78
2021/07/29 10:47:14;;;;;;;10.20;9.50;;;26.60;99.90;;;;;;4937379;29;20199;-78
2021/07/29 10:50:19;;;;;;;5.80;5.30;;;26.80;99.90;;;;;;4945304;29;20278;-78
2021/07/29 10:52:53;;;;;;;6.00;5.50;;;26.60;99.90;;;;;;4944434;29;20195;-78
2021/07/29 10:55:22;;;;;;;9.43;8.73;;;26.40;99.90;;;;;;4938658;29;20253;-76
2021/07/29 10:58:01;;;;;;;7.07;6.10;;;26.40;99.90;;;;;;4943267;29;20241;-76
2021/07/29 11:00:27;;;;;;;6.70;6.10;;;26.30;99.90;;;;;;4941634;29;20249;-76
2021/07/29 11:02:56;;;;;;;6.60;6.00;;;26.40;99.90;;;;;;4941693;28;20684;-76
2021/07/29 11:05:30;;;;;;;5.60;5.10;;;26.50;99.90;;;;;;4945343;29;20206;-76
2021/07/29 11:07:56;;;;;;;6.20;5.70;;;26.40;99.90;;;;;;4933018;29;20203;-76
2021/07/29 11:10:28;;;;;;;6.33;5.73;;;26.20;99.90;;;;;;4941626;29;20215;-76
2021/07/29 11:12:55;;;;;;;7.20;6.60;;;26.30;99.90;;;;;;4944630;29;20666;-78
2021/07/29 11:15:22;;;;;;;9.47;8.67;;;26.50;99.90;;;;;;4942331;29;20660;-76
2021/07/29 11:17:49;;;;;;;8.47;7.77;;;26.50;99.90;;;;;;4943810;29;20198;-76
2021/07/29 11:20:26;;;;;;;9.53;8.80;;;26.80;99.90;;;;;;4940458;29;20218;-77
2021/07/29 11:22:53;;;;;;;9.33;8.53;;;27.10;99.90;;;;;;4941218;29;20206;-77
2021/07/29 11:25:20;;;;;;;11.20;10.30;;;27.10;99.90;;;;;;4942803;29;20680;-77
2021/07/29 11:27:48;;;;;;;9.63;8.93;;;27.20;99.90;;;;;;4939932;29;20576;-78
2021/07/29 11:30:15;;;;;;;10.17;9.17;;;27.20;99.90;;;;;;4940589;28;20223;-77
2021/07/29 11:32:43;;;;;;;9.00;8.20;;;26.90;99.90;;;;;;4943393;29;20195;-77
2021/07/29 11:35:14;;;;;;;8.87;8.17;;;26.40;99.90;;;;;;4942217;29;20195;-77
2021/07/29 11:37:43;;;;;;;9.30;8.60;;;26.20;99.90;;;;;;4942077;29;20282;-79
2021/07/29 11:40:18;;;;;;;9.53;8.77;;;26.50;99.90;;;;;;4942595;28;20647;-80
2021/07/29 11:42:45;;;;;;;10.07;9.37;;;26.80;99.90;;;;;;4944624;29;20277;-78
2021/07/29 11:45:25;;;;;;;9.93;9.13;;;26.80;99.90;;;;;;4940627;29;20201;-78
2021/07/29 11:47:51;;;;;;;10.57;9.70;;;26.70;99.90;;;;;;4937181;29;20202;-78
2021/07/29 11:50:35;;;;;;;9.93;9.03;;;26.60;99.90;;;;;;4945108;29;20564;-78
2021/07/29 11:53:02;;;;;;;9.93;9.23;;;26.30;99.90;;;;;;4934663;29;20202;-78
2021/07/29 11:55:29;;;;;;;11.73;10.77;;;26.10;99.90;;;;;;4943013;29;20198;-76
2021/07/29 11:57:57;;;;;;;9.00;8.40;;;26.00;99.90;;;;;;4938082;29;20198;-77
2021/07/29 12:00:29;;;;;;;9.50;8.80;;;26.20;99.90;;;;;;4941474;29;20688;-76
2021/07/29 12:02:57;;;;;;;9.40;8.70;;;26.30;99.90;;;;;;4943551;29;20202;-76
2021/07/29 12:05:25;;;;;;;9.80;9.10;;;26.50;99.90;;;;;;4940202;29;20198;-76
2021/07/29 12:07:53;;;;;;;9.30;8.63;;;26.50;99.90;;;;;;4940884;29;20212;-77
2021/07/29 12:10:22;;;;;;;10.33;9.53;;;26.70;99.90;;;;;;4942932;29;20304;-76
2021/07/29 12:12:49;;;;;;;10.63;9.90;;;26.90;99.90;;;;;;4939139;29;20195;-76
2021/07/29 12:15:16;;;;;;;10.40;9.60;;;26.90;99.90;;;;;;4947550;28;20664;-76
2021/07/29 12:17:44;;;;;;;9.97;9.20;;;26.90;99.90;;;;;;4947480;28;20199;-76
2021/07/29 12:20:14;;;;;;;8.87;8.20;;;26.90;99.90;;;;;;4956615;28;20626;-76
2021/07/29 12:22:42;;;;;;;9.93;9.20;;;26.70;99.90;;;;;;4963120;23;20633;-77
2021/07/29 12:25:24;;;;;;;9.90;9.00;;;26.50;99.90;;;;;;4947042;29;20204;-77
2021/07/29 12:27:55;;;;;;;9.53;8.83;;;26.50;99.90;;;;;;4947593;29;20199;-77
2021/07/29 12:30:34;;;;;;;9.50;8.70;;;26.30;99.90;;;;;;4947029;29;20281;-76
2021/07/29 12:33:07;;;;;;;9.53;8.63;;;26.30;99.90;;;;;;4938041;29;20304;-77
2021/07/29 12:35:34;;;;;;;9.43;8.63;;;26.20;99.90;;;;;;4945763;29;20206;-76
2021/07/29 12:38:01;;;;;;;10.13;8.83;;;26.20;99.90;;;;;;4947327;29;20211;-76
2021/07/29 12:40:31;;;;;;;9.43;8.73;;;26.10;99.90;;;;;;4947239;29;20209;-77
2021/07/29 12:43:19;;;;;;;10.20;9.40;;;26.20;99.90;;;;;;4935165;29;20217;-77
2021/07/29 12:45:47;;;;;;;9.67;8.97;;;26.20;99.90;;;;;;4942430;28;20382;-77
2021/07/29 12:48:15;;;;;;;9.97;9.27;;;26.40;99.90;;;;;;4948431;29;20202;-76
2021/07/29 12:50:42;;;;;;;9.83;9.03;;;26.40;99.90;;;;;;4945626;29;20703;-77
2021/07/29 12:53:10;;;;;;;9.20;8.50;;;26.60;99.90;;;;;;4947878;29;20659;-77